createdAt,value
2018-11-11T00:00:20.391Z,1005.34
2018-11-11T00:01:00.958Z,1005.37
2018-11-11T00:01:41.501Z,1005.4
2018-11-11T00:02:22.042Z,1005.39
2018-11-11T00:03:02.619Z,1005.38
2018-11-11T00:03:43.178Z,1005.38
2018-11-11T00:04:23.733Z,1005.41
2018-11-11T00:05:04.288Z,1005.4
2018-11-11T00:05:44.882Z,1005.41
2018-11-11T00:06:25.453Z,1005.43
2018-11-11T00:07:05.999Z,1005.41
2018-11-11T00:07:46.571Z,1005.43
2018-11-11T00:08:27.122Z,1005.44
2018-11-11T00:09:07.681Z,1005.42
2018-11-11T00:09:48.231Z,1005.4
2018-11-11T00:10:28.801Z,1005.39
2018-11-11T00:11:09.364Z,1005.39
2018-11-11T00:11:49.940Z,1005.39
2018-11-11T00:12:30.491Z,1005.39
2018-11-11T00:13:11.051Z,1005.37
2018-11-11T00:13:51.621Z,1005.38
2018-11-11T00:14:32.177Z,1005.35
2018-11-11T00:15:12.764Z,1005.33
2018-11-11T00:15:53.361Z,1005.36
2018-11-11T00:16:33.932Z,1005.32
2018-11-11T00:17:14.507Z,1005.33
2018-11-11T00:17:55.097Z,1005.31
2018-11-11T00:18:35.681Z,1005.28
2018-11-11T00:19:16.195Z,1005.25
2018-11-11T00:19:56.753Z,1005.25
2018-11-11T00:20:37.315Z,1005.24
2018-11-11T00:21:17.861Z,1005.22
2018-11-11T00:21:58.418Z,1005.22
2018-11-11T00:22:38.987Z,1005.22
2018-11-11T00:23:19.561Z,1005.21
2018-11-11T00:24:00.143Z,1005.23
2018-11-11T00:24:40.703Z,1005.25
2018-11-11T00:25:21.272Z,1005.3
2018-11-11T00:26:01.880Z,1005.3
2018-11-11T00:26:42.375Z,1005.29
2018-11-11T00:27:22.923Z,1005.27
2018-11-11T00:28:03.476Z,1005.3
2018-11-11T00:28:44.115Z,1005.35
2018-11-11T00:29:24.597Z,1005.32
2018-11-11T00:30:05.155Z,1005.3
2018-11-11T00:30:45.715Z,1005.32
2018-11-11T00:31:26.274Z,1005.3
2018-11-11T00:32:06.833Z,1005.36
2018-11-11T00:32:47.393Z,1005.31
2018-11-11T00:33:27.940Z,1005.31
2018-11-11T00:34:08.516Z,1005.3
2018-11-11T00:34:49.073Z,1005.26
2018-11-11T00:35:29.636Z,1005.24
2018-11-11T00:36:10.208Z,1005.2
2018-11-11T00:36:50.779Z,1005.22
2018-11-11T00:37:31.344Z,1005.22
2018-11-11T00:38:11.913Z,1005.27
2018-11-11T00:38:52.473Z,1005.29
2018-11-11T00:39:33.117Z,1005.26
2018-11-11T00:40:13.588Z,1005.29
2018-11-11T00:40:54.169Z,1005.32
2018-11-11T00:41:34.734Z,1005.27
2018-11-11T00:42:15.301Z,1005.33
2018-11-11T00:42:55.842Z,1005.33
2018-11-11T00:43:36.403Z,1005.31
2018-11-11T00:44:16.958Z,1005.35
2018-11-11T00:44:57.528Z,1005.34
2018-11-11T00:45:38.079Z,1005.32
2018-11-11T00:46:18.636Z,1005.29
2018-11-11T00:46:59.182Z,1005.31
2018-11-11T00:47:39.744Z,1005.34
2018-11-11T00:48:20.294Z,1005.32
2018-11-11T00:49:00.859Z,1005.36
2018-11-11T00:49:41.419Z,1005.36
2018-11-11T00:50:21.979Z,1005.38
2018-11-11T00:51:02.528Z,1005.38
2018-11-11T00:51:43.122Z,1005.36
2018-11-11T00:52:23.745Z,1005.4
2018-11-11T00:53:04.312Z,1005.36
2018-11-11T00:53:44.893Z,1005.34
2018-11-11T00:54:25.475Z,1005.35
2018-11-11T00:55:06.032Z,1005.32
2018-11-11T00:55:46.578Z,1005.34
2018-11-11T00:56:27.149Z,1005.32
2018-11-11T00:57:07.715Z,1005.36
2018-11-11T00:57:48.323Z,1005.36
2018-11-11T00:58:28.876Z,1005.36
2018-11-11T00:59:09.434Z,1005.36
2018-11-11T00:59:49.991Z,1005.34
2018-11-11T01:00:30.554Z,1005.33
2018-11-11T01:01:11.116Z,1005.35
2018-11-11T01:01:51.708Z,1005.3
2018-11-11T01:02:32.266Z,1005.3
2018-11-11T01:03:12.818Z,1005.32
2018-11-11T01:03:53.398Z,1005.33
2018-11-11T01:04:33.960Z,1005.35
2018-11-11T01:05:14.517Z,1005.35
2018-11-11T01:05:55.088Z,1005.3
2018-11-11T01:06:35.653Z,1005.31
2018-11-11T01:07:16.190Z,1005.42
2018-11-11T01:07:56.749Z,1005.38
2018-11-11T01:08:37.290Z,1005.35
2018-11-11T01:09:17.850Z,1005.4
2018-11-11T01:09:58.388Z,1005.36
2018-11-11T01:10:38.954Z,1005.38
2018-11-11T01:11:19.499Z,1005.39
2018-11-11T01:12:00.093Z,1005.37
2018-11-11T01:12:40.631Z,1005.39
2018-11-11T01:13:21.198Z,1005.36
2018-11-11T01:14:01.761Z,1005.37
2018-11-11T01:14:42.325Z,1005.33
2018-11-11T01:15:22.981Z,1005.35
2018-11-11T01:16:03.576Z,1005.3
2018-11-11T01:16:44.158Z,1005.32
2018-11-11T01:17:24.729Z,1005.31
2018-11-11T01:18:05.267Z,1005.34
2018-11-11T01:18:45.856Z,1005.3
2018-11-11T01:19:26.412Z,1005.34
2018-11-11T01:20:07.009Z,1005.35
2018-11-11T01:20:47.537Z,1005.36
2018-11-11T01:21:28.108Z,1005.37
2018-11-11T01:22:08.668Z,1005.34
2018-11-11T01:22:49.235Z,1005.33
2018-11-11T01:23:29.799Z,1005.37
2018-11-11T01:24:10.361Z,1005.37
2018-11-11T01:24:50.913Z,1005.4
2018-11-11T01:25:31.488Z,1005.42
2018-11-11T01:26:12.048Z,1005.38
2018-11-11T01:26:52.740Z,1005.41
2018-11-11T01:27:33.305Z,1005.42
2018-11-11T01:28:13.879Z,1005.42
2018-11-11T01:28:54.441Z,1005.41
2018-11-11T01:29:35.006Z,1005.39
2018-11-11T01:30:15.578Z,1005.39
2018-11-11T01:30:56.168Z,1005.38
2018-11-11T01:31:36.732Z,1005.39
2018-11-11T01:32:17.289Z,1005.37
2018-11-11T01:32:57.877Z,1005.37
2018-11-11T01:33:38.414Z,1005.44
2018-11-11T01:34:19.013Z,1005.39
2018-11-11T01:34:59.575Z,1005.39
2018-11-11T01:35:40.134Z,1005.38
2018-11-11T01:36:20.701Z,1005.39
2018-11-11T01:37:01.277Z,1005.36
2018-11-11T01:37:41.851Z,1005.38
2018-11-11T01:38:22.463Z,1005.37
2018-11-11T01:39:03.009Z,1005.4
2018-11-11T01:39:43.588Z,1005.43
2018-11-11T01:40:24.168Z,1005.4
2018-11-11T01:41:04.745Z,1005.44
2018-11-11T01:41:45.315Z,1005.37
2018-11-11T01:42:25.883Z,1005.42
2018-11-11T01:43:06.439Z,1005.41
2018-11-11T01:43:47.009Z,1005.37
2018-11-11T01:44:27.568Z,1005.37
2018-11-11T01:45:08.136Z,1005.37
2018-11-11T01:45:48.710Z,1005.35
2018-11-11T01:46:29.277Z,1005.35
2018-11-11T01:47:09.852Z,1005.35
2018-11-11T01:47:50.426Z,1005.35
2018-11-11T01:48:30.980Z,1005.35
2018-11-11T01:49:11.535Z,1005.35
2018-11-11T01:49:52.106Z,1005.34
2018-11-11T01:50:32.674Z,1005.34
2018-11-11T01:51:13.239Z,1005.39
2018-11-11T01:51:53.781Z,1005.36
2018-11-11T01:52:34.337Z,1005.35
2018-11-11T01:53:14.905Z,1005.35
2018-11-11T01:53:55.471Z,1005.33
2018-11-11T01:54:36.035Z,1005.35
2018-11-11T01:55:16.623Z,1005.32
2018-11-11T01:55:57.182Z,1005.37
2018-11-11T01:56:37.743Z,1005.31
2018-11-11T01:57:18.318Z,1005.33
2018-11-11T01:57:58.904Z,1005.35
2018-11-11T01:58:39.467Z,1005.33
2018-11-11T01:59:20.025Z,1005.33
2018-11-11T02:00:00.572Z,1005.29
2018-11-11T02:00:41.145Z,1005.34
2018-11-11T02:01:21.698Z,1005.3
2018-11-11T02:02:02.254Z,1005.3
2018-11-11T02:02:42.813Z,1005.31
2018-11-11T02:03:23.391Z,1005.28
2018-11-11T02:04:03.954Z,1005.29
2018-11-11T02:04:44.518Z,1005.3
2018-11-11T02:05:25.075Z,1005.29
2018-11-11T02:06:05.626Z,1005.28
2018-11-11T02:06:46.201Z,1005.31
2018-11-11T02:07:26.767Z,1005.3
2018-11-11T02:08:07.332Z,1005.33
2018-11-11T02:08:47.882Z,1005.32
2018-11-11T02:09:28.441Z,1005.29
2018-11-11T02:10:09.051Z,1005.34
2018-11-11T02:10:49.575Z,1005.29
2018-11-11T02:11:30.127Z,1005.35
2018-11-11T02:12:10.683Z,1005.36
2018-11-11T02:12:51.231Z,1005.36
2018-11-11T02:13:31.807Z,1005.38
2018-11-11T02:14:12.364Z,1005.38
2018-11-11T02:14:52.946Z,1005.41
2018-11-11T02:15:33.517Z,1005.4
2018-11-11T02:16:14.068Z,1005.41
2018-11-11T02:16:54.621Z,1005.43
2018-11-11T02:17:35.218Z,1005.4
2018-11-11T02:18:15.781Z,1005.38
2018-11-11T02:18:56.363Z,1005.4
2018-11-11T02:19:36.936Z,1005.39
2018-11-11T02:20:17.496Z,1005.38
2018-11-11T02:20:58.095Z,1005.37
2018-11-11T02:21:38.732Z,1005.35
2018-11-11T02:22:19.152Z,1005.33
2018-11-11T02:22:59.714Z,1005.32
2018-11-11T02:23:40.277Z,1005.35
2018-11-11T02:24:20.832Z,1005.33
2018-11-11T02:25:01.393Z,1005.34
2018-11-11T02:25:41.965Z,1005.37
2018-11-11T02:26:22.534Z,1005.35
2018-11-11T02:27:03.114Z,1005.36
2018-11-11T02:27:43.675Z,1005.36
2018-11-11T02:28:24.259Z,1005.37
2018-11-11T02:29:04.821Z,1005.43
2018-11-11T02:29:45.395Z,1005.35
2018-11-11T02:30:25.991Z,1005.37
2018-11-11T02:31:06.528Z,1005.37
2018-11-11T02:31:47.143Z,1005.3
2018-11-11T02:32:27.707Z,1005.3
2018-11-11T02:33:08.273Z,1005.35
2018-11-11T02:33:48.826Z,1005.28
2018-11-11T02:34:29.385Z,1005.29
2018-11-11T02:35:09.961Z,1005.29
2018-11-11T02:35:50.503Z,1005.31
2018-11-11T02:36:31.055Z,1005.3
2018-11-11T02:37:11.642Z,1005.26
2018-11-11T02:37:52.214Z,1005.3
2018-11-11T02:38:32.772Z,1005.26
2018-11-11T02:39:13.349Z,1005.34
2018-11-11T02:39:53.906Z,1005.28
2018-11-11T02:40:34.468Z,1005.32
2018-11-11T02:41:15.026Z,1005.37
2018-11-11T02:41:55.592Z,1005.36
2018-11-11T02:42:36.151Z,1005.33
2018-11-11T02:43:16.710Z,1005.37
2018-11-11T02:43:57.264Z,1005.37
2018-11-11T02:44:37.825Z,1005.35
2018-11-11T02:45:18.423Z,1005.38
2018-11-11T02:45:58.993Z,1005.37
2018-11-11T02:46:39.567Z,1005.41
2018-11-11T02:47:20.138Z,1005.39
2018-11-11T02:48:00.713Z,1005.4
2018-11-11T02:48:41.262Z,1005.49
2018-11-11T02:49:21.841Z,1005.46
2018-11-11T02:50:02.392Z,1005.47
2018-11-11T02:50:42.948Z,1005.46
2018-11-11T02:51:23.501Z,1005.5
2018-11-11T02:52:04.074Z,1005.48
2018-11-11T02:52:44.624Z,1005.49
2018-11-11T02:53:25.189Z,1005.43
2018-11-11T02:54:05.747Z,1005.47
2018-11-11T02:54:46.342Z,1005.46
2018-11-11T02:55:26.920Z,1005.49
2018-11-11T02:56:07.487Z,1005.48
2018-11-11T02:56:48.052Z,1005.49
2018-11-11T02:57:28.616Z,1005.42
2018-11-11T02:58:09.173Z,1005.4
2018-11-11T02:58:49.729Z,1005.37
2018-11-11T02:59:30.365Z,1005.33
2018-11-11T03:00:10.820Z,1005.36
2018-11-11T03:00:51.382Z,1005.34
2018-11-11T03:01:31.954Z,1005.3
2018-11-11T03:02:12.522Z,1005.27
2018-11-11T03:02:53.087Z,1005.31
2018-11-11T03:03:33.661Z,1005.35
2018-11-11T03:04:14.280Z,1005.34
2018-11-11T03:04:54.781Z,1005.39
2018-11-11T03:05:35.333Z,1005.39
2018-11-11T03:06:15.911Z,1005.33
2018-11-11T03:06:56.487Z,1005.43
2018-11-11T03:07:37.048Z,1005.33
2018-11-11T03:08:17.608Z,1005.36
2018-11-11T03:08:58.168Z,1005.36
2018-11-11T03:09:38.717Z,1005.38
2018-11-11T03:10:19.295Z,1005.35
2018-11-11T03:10:59.845Z,1005.38
2018-11-11T03:11:40.406Z,1005.38
2018-11-11T03:12:20.973Z,1005.39
2018-11-11T03:13:01.526Z,1005.38
2018-11-11T03:13:42.119Z,1005.39
2018-11-11T03:14:22.684Z,1005.37
2018-11-11T03:15:03.235Z,1005.39
2018-11-11T03:15:43.809Z,1005.39
2018-11-11T03:16:24.343Z,1005.35
2018-11-11T03:17:04.922Z,1005.35
2018-11-11T03:17:45.475Z,1005.35
2018-11-11T03:18:26.026Z,1005.39
2018-11-11T03:19:06.589Z,1005.36
2018-11-11T03:19:47.154Z,1005.35
2018-11-11T03:20:27.715Z,1005.35
2018-11-11T03:21:08.265Z,1005.31
2018-11-11T03:21:48.821Z,1005.34
2018-11-11T03:22:29.392Z,1005.39
2018-11-11T03:23:09.960Z,1005.3
2018-11-11T03:23:50.517Z,1005.35
2018-11-11T03:24:31.073Z,1005.33
2018-11-11T03:25:11.649Z,1005.31
2018-11-11T03:25:52.213Z,1005.34
2018-11-11T03:26:32.776Z,1005.35
2018-11-11T03:27:13.336Z,1005.38
2018-11-11T03:27:53.913Z,1005.37
2018-11-11T03:28:34.490Z,1005.39
2018-11-11T03:29:15.044Z,1005.45
2018-11-11T03:29:55.600Z,1005.41
2018-11-11T03:30:36.186Z,1005.49
2018-11-11T03:31:16.754Z,1005.48
2018-11-11T03:31:57.324Z,1005.54
2018-11-11T03:32:37.896Z,1005.51
2018-11-11T03:33:18.471Z,1005.53
2018-11-11T03:33:59.040Z,1005.56
2018-11-11T03:34:39.599Z,1005.58
2018-11-11T03:35:20.203Z,1005.51
2018-11-11T03:36:00.751Z,1005.58
2018-11-11T03:36:41.302Z,1005.58
2018-11-11T03:37:21.861Z,1005.55
2018-11-11T03:38:02.418Z,1005.56
2018-11-11T03:38:42.974Z,1005.53
2018-11-11T03:39:23.589Z,1005.55
2018-11-11T03:40:04.141Z,1005.56
2018-11-11T03:40:44.712Z,1005.59
2018-11-11T03:41:25.270Z,1005.57
2018-11-11T03:42:05.829Z,1005.59
2018-11-11T03:42:46.388Z,1005.55
2018-11-11T03:43:26.954Z,1005.55
2018-11-11T03:44:07.518Z,1005.56
2018-11-11T03:44:48.078Z,1005.56
2018-11-11T03:45:28.660Z,1005.55
2018-11-11T03:46:09.218Z,1005.51
2018-11-11T03:46:49.783Z,1005.57
2018-11-11T03:47:30.345Z,1005.53
2018-11-11T03:48:10.899Z,1005.52
2018-11-11T03:48:51.457Z,1005.54
2018-11-11T03:49:32.027Z,1005.48
2018-11-11T03:50:12.582Z,1005.48
2018-11-11T03:50:53.145Z,1005.46
2018-11-11T03:51:33.691Z,1005.45
2018-11-11T03:52:14.253Z,1005.39
2018-11-11T03:52:54.799Z,1005.39
2018-11-11T03:53:35.371Z,1005.37
2018-11-11T03:54:15.925Z,1005.37
2018-11-11T03:54:56.487Z,1005.33
2018-11-11T03:55:37.029Z,1005.34
2018-11-11T03:56:17.591Z,1005.32
2018-11-11T03:56:58.190Z,1005.3
2018-11-11T03:57:38.749Z,1005.29
2018-11-11T03:58:19.304Z,1005.26
2018-11-11T03:58:59.883Z,1005.31
2018-11-11T03:59:40.443Z,1005.37
2018-11-11T04:00:21.019Z,1005.41
2018-11-11T04:01:01.582Z,1005.34
2018-11-11T04:01:42.119Z,1005.39
2018-11-11T04:02:22.674Z,1005.44
2018-11-11T04:03:03.240Z,1005.41
2018-11-11T04:03:43.806Z,1005.46
2018-11-11T04:04:24.369Z,1005.51
2018-11-11T04:05:04.939Z,1005.5
2018-11-11T04:05:45.492Z,1005.57
2018-11-11T04:06:26.047Z,1005.55
2018-11-11T04:07:06.619Z,1005.56
2018-11-11T04:07:47.180Z,1005.56
2018-11-11T04:08:27.722Z,1005.56
2018-11-11T04:09:08.278Z,1005.54
2018-11-11T04:09:48.835Z,1005.54
2018-11-11T04:10:29.485Z,1005.55
2018-11-11T04:11:09.939Z,1005.55
2018-11-11T04:11:50.490Z,1005.52
2018-11-11T04:12:31.108Z,1005.56
2018-11-11T04:13:11.685Z,1005.57
2018-11-11T04:13:52.237Z,1005.58
2018-11-11T04:14:32.895Z,1005.62
2018-11-11T04:15:13.456Z,1005.64
2018-11-11T04:15:54.002Z,1005.72
2018-11-11T04:16:34.570Z,1005.72
2018-11-11T04:17:15.119Z,1005.79
2018-11-11T04:17:55.702Z,1005.76
2018-11-11T04:18:36.269Z,1005.77
2018-11-11T04:19:16.824Z,1005.77
2018-11-11T04:19:57.387Z,1005.75
2018-11-11T04:20:37.940Z,1005.78
2018-11-11T04:21:18.504Z,1005.77
2018-11-11T04:21:59.067Z,1005.8
2018-11-11T04:22:39.621Z,1005.73
2018-11-11T04:23:20.188Z,1005.68
2018-11-11T04:24:00.772Z,1005.71
2018-11-11T04:24:41.336Z,1005.65
2018-11-11T04:25:21.899Z,1005.7
2018-11-11T04:26:02.455Z,1005.73
2018-11-11T04:26:43.077Z,1005.69
2018-11-11T04:27:23.651Z,1005.72
2018-11-11T04:28:04.218Z,1005.75
2018-11-11T04:28:44.774Z,1005.74
2018-11-11T04:29:25.340Z,1005.74
2018-11-11T04:30:05.890Z,1005.71
2018-11-11T04:30:46.459Z,1005.69
2018-11-11T04:31:27.018Z,1005.69
2018-11-11T04:32:07.584Z,1005.77
2018-11-11T04:32:48.140Z,1005.78
2018-11-11T04:33:28.696Z,1005.77
2018-11-11T04:34:09.257Z,1005.79
2018-11-11T04:34:49.828Z,1005.76
2018-11-11T04:35:30.396Z,1005.76
2018-11-11T04:36:10.956Z,1005.8
2018-11-11T04:36:51.514Z,1005.79
2018-11-11T04:37:32.069Z,1005.74
2018-11-11T04:38:12.635Z,1005.8
2018-11-11T04:38:53.207Z,1005.8
2018-11-11T04:39:33.785Z,1005.79
2018-11-11T04:40:14.349Z,1005.82
2018-11-11T04:40:54.903Z,1005.84
2018-11-11T04:41:35.455Z,1005.82
2018-11-11T04:42:15.997Z,1005.81
2018-11-11T04:42:56.585Z,1005.83
2018-11-11T04:43:37.143Z,1005.82
2018-11-11T04:44:17.708Z,1005.84
2018-11-11T04:44:58.275Z,1005.8
2018-11-11T04:45:38.852Z,1005.85
2018-11-11T04:46:19.472Z,1005.8
2018-11-11T04:46:59.995Z,1005.79
2018-11-11T04:47:40.582Z,1005.81
2018-11-11T04:48:21.165Z,1005.84
2018-11-11T04:49:01.710Z,1005.8
2018-11-11T04:49:42.280Z,1005.76
2018-11-11T04:50:22.835Z,1005.73
2018-11-11T04:51:03.417Z,1005.73
2018-11-11T04:51:43.972Z,1005.71
2018-11-11T04:52:24.538Z,1005.7
2018-11-11T04:53:05.094Z,1005.68
2018-11-11T04:53:45.667Z,1005.67
2018-11-11T04:54:26.219Z,1005.65
2018-11-11T04:55:06.777Z,1005.65
2018-11-11T04:55:47.332Z,1005.61
2018-11-11T04:56:27.884Z,1005.64
2018-11-11T04:57:08.449Z,1005.6
2018-11-11T04:57:49.009Z,1005.65
2018-11-11T04:58:29.571Z,1005.65
2018-11-11T04:59:10.120Z,1005.66
2018-11-11T04:59:50.688Z,1005.64
2018-11-11T05:00:31.249Z,1005.66
2018-11-11T05:01:11.813Z,1005.71
2018-11-11T05:01:52.386Z,1005.68
2018-11-11T05:02:32.932Z,1005.71
2018-11-11T05:03:13.497Z,1005.69
2018-11-11T05:03:54.048Z,1005.66
2018-11-11T05:04:34.650Z,1005.68
2018-11-11T05:05:15.176Z,1005.66
2018-11-11T05:05:55.749Z,1005.66
2018-11-11T05:06:36.316Z,1005.68
2018-11-11T05:07:16.886Z,1005.67
2018-11-11T05:07:57.440Z,1005.64
2018-11-11T05:08:38.029Z,1005.66
2018-11-11T05:09:18.612Z,1005.63
2018-11-11T05:09:59.164Z,1005.63
2018-11-11T05:10:39.724Z,1005.61
2018-11-11T05:11:20.298Z,1005.62
2018-11-11T05:12:00.901Z,1005.63
2018-11-11T05:12:41.455Z,1005.63
2018-11-11T05:13:22.013Z,1005.59
2018-11-11T05:14:02.602Z,1005.63
2018-11-11T05:14:43.158Z,1005.6
2018-11-11T05:15:23.708Z,1005.59
2018-11-11T05:16:04.262Z,1005.59
2018-11-11T05:16:44.828Z,1005.6
2018-11-11T05:17:25.388Z,1005.63
2018-11-11T05:18:05.953Z,1005.63
2018-11-11T05:18:46.529Z,1005.62
2018-11-11T05:19:27.103Z,1005.63
2018-11-11T05:20:07.642Z,1005.63
2018-11-11T05:20:48.182Z,1005.59
2018-11-11T05:21:28.747Z,1005.63
2018-11-11T05:22:09.297Z,1005.67
2018-11-11T05:22:49.871Z,1005.69
2018-11-11T05:23:30.417Z,1005.7
2018-11-11T05:24:10.967Z,1005.73
2018-11-11T05:24:51.551Z,1005.75
2018-11-11T05:25:32.104Z,1005.78
2018-11-11T05:26:12.681Z,1005.87
2018-11-11T05:26:53.233Z,1005.88
2018-11-11T05:27:33.815Z,1005.87
2018-11-11T05:28:14.378Z,1005.88
2018-11-11T05:28:54.931Z,1005.88
2018-11-11T05:29:35.508Z,1005.89
2018-11-11T05:30:16.102Z,1005.85
2018-11-11T05:30:56.679Z,1005.88
2018-11-11T05:31:37.214Z,1005.87
2018-11-11T05:32:17.773Z,1005.85
2018-11-11T05:32:58.335Z,1005.84
2018-11-11T05:33:38.881Z,1005.81
2018-11-11T05:34:19.452Z,1005.85
2018-11-11T05:35:00.040Z,1005.85
2018-11-11T05:35:40.608Z,1005.86
2018-11-11T05:36:21.176Z,1005.9
2018-11-11T05:37:01.731Z,1005.9
2018-11-11T05:37:42.344Z,1005.92
2018-11-11T05:38:22.923Z,1005.95
2018-11-11T05:39:03.478Z,1005.92
2018-11-11T05:39:44.050Z,1005.97
2018-11-11T05:40:24.599Z,1005.96
2018-11-11T05:41:05.161Z,1005.94
2018-11-11T05:41:45.717Z,1005.94
2018-11-11T05:42:26.272Z,1005.93
2018-11-11T05:43:06.813Z,1005.92
2018-11-11T05:43:47.419Z,1005.99
2018-11-11T05:44:27.986Z,1005.97
2018-11-11T05:45:08.543Z,1005.98
2018-11-11T05:45:49.085Z,1005.92
2018-11-11T05:46:29.633Z,1005.97
2018-11-11T05:47:10.194Z,1005.96
2018-11-11T05:47:50.737Z,1005.97
2018-11-11T05:48:31.301Z,1005.98
2018-11-11T05:49:11.884Z,1005.96
2018-11-11T05:49:52.453Z,1005.97
2018-11-11T05:50:33.016Z,1005.94
2018-11-11T05:51:13.574Z,1005.95
2018-11-11T05:51:54.126Z,1005.96
2018-11-11T05:52:34.718Z,1005.94
2018-11-11T05:53:15.254Z,1005.96
2018-11-11T05:53:55.838Z,1005.99
2018-11-11T05:54:36.395Z,1005.97
2018-11-11T05:55:16.971Z,1006.02
2018-11-11T05:55:57.534Z,1006.04
2018-11-11T05:56:38.094Z,1005.99
2018-11-11T05:57:18.641Z,1006
2018-11-11T05:57:59.205Z,1005.98
2018-11-11T05:58:39.773Z,1005.99
2018-11-11T05:59:20.345Z,1005.96
2018-11-11T06:00:00.956Z,1005.96
2018-11-11T06:00:41.526Z,1005.98
2018-11-11T06:01:22.096Z,1005.97
2018-11-11T06:02:02.650Z,1005.98
2018-11-11T06:02:43.199Z,1006
2018-11-11T06:03:23.790Z,1006
2018-11-11T06:04:04.366Z,1006.02
2018-11-11T06:04:44.923Z,1006.01
2018-11-11T06:05:25.512Z,1006.02
2018-11-11T06:06:06.089Z,1006.04
2018-11-11T06:06:46.649Z,1006.03
2018-11-11T06:07:27.212Z,1006.03
2018-11-11T06:08:07.779Z,1006.04
2018-11-11T06:08:48.342Z,1006.05
2018-11-11T06:09:28.892Z,1006.04
2018-11-11T06:10:09.453Z,1006.05
2018-11-11T06:10:50.015Z,1006.05
2018-11-11T06:11:30.624Z,1006.01
2018-11-11T06:12:11.184Z,1006
2018-11-11T06:12:51.739Z,1006.04
2018-11-11T06:13:32.284Z,1006.01
2018-11-11T06:14:12.836Z,1006
2018-11-11T06:14:53.403Z,1006.01
2018-11-11T06:15:33.976Z,1005.98
2018-11-11T06:16:14.533Z,1005.99
2018-11-11T06:16:55.110Z,1005.99
2018-11-11T06:17:35.662Z,1005.94
2018-11-11T06:18:16.221Z,1005.96
2018-11-11T06:18:56.788Z,1005.92
2018-11-11T06:19:37.344Z,1005.94
2018-11-11T06:20:17.907Z,1005.91
2018-11-11T06:20:58.470Z,1005.89
2018-11-11T06:21:39.032Z,1005.92
2018-11-11T06:22:19.575Z,1005.95
2018-11-11T06:23:00.133Z,1005.92
2018-11-11T06:23:40.725Z,1005.93
2018-11-11T06:24:21.268Z,1005.91
2018-11-11T06:25:01.865Z,1005.87
2018-11-11T06:25:42.421Z,1005.86
2018-11-11T06:26:22.975Z,1005.84
2018-11-11T06:27:03.533Z,1005.86
2018-11-11T06:27:44.092Z,1005.82
2018-11-11T06:28:24.650Z,1005.83
2018-11-11T06:29:05.213Z,1005.86
2018-11-11T06:29:45.786Z,1005.85
2018-11-11T06:30:26.343Z,1005.89
2018-11-11T06:31:06.924Z,1005.88
2018-11-11T06:31:47.501Z,1005.92
2018-11-11T06:32:28.058Z,1005.91
2018-11-11T06:33:08.620Z,1005.93
2018-11-11T06:33:49.310Z,1005.97
2018-11-11T06:34:29.799Z,1005.99
2018-11-11T06:35:10.365Z,1005.98
2018-11-11T06:35:50.938Z,1005.96
2018-11-11T06:36:31.503Z,1005.96
2018-11-11T06:37:12.131Z,1005.99
2018-11-11T06:37:52.680Z,1005.95
2018-11-11T06:38:33.258Z,1005.98
2018-11-11T06:39:13.807Z,1006
2018-11-11T06:39:54.367Z,1006.05
2018-11-11T06:40:34.946Z,1006.07
2018-11-11T06:41:15.505Z,1006.06
2018-11-11T06:41:56.094Z,1006.07
2018-11-11T06:42:36.642Z,1006.02
2018-11-11T06:43:17.211Z,1006.05
2018-11-11T06:43:57.767Z,1006.06
2018-11-11T06:44:38.332Z,1006.08
2018-11-11T06:45:18.953Z,1006.09
2018-11-11T06:45:59.532Z,1006.08
2018-11-11T06:46:40.098Z,1006.04
2018-11-11T06:47:20.658Z,1006.04
2018-11-11T06:48:01.246Z,1006.02
2018-11-11T06:48:41.770Z,1006
2018-11-11T06:49:22.316Z,1006
2018-11-11T06:50:02.867Z,1006.02
2018-11-11T06:50:43.453Z,1005.99
2018-11-11T06:51:24.035Z,1005.96
2018-11-11T06:52:04.577Z,1005.94
2018-11-11T06:52:45.131Z,1005.93
2018-11-11T06:53:25.681Z,1005.94
2018-11-11T06:54:06.251Z,1005.94
2018-11-11T06:54:46.810Z,1005.92
2018-11-11T06:55:27.388Z,1005.89
2018-11-11T06:56:07.955Z,1005.91
2018-11-11T06:56:48.507Z,1005.9
2018-11-11T06:57:29.067Z,1005.91
2018-11-11T06:58:09.695Z,1005.89
2018-11-11T06:58:50.189Z,1005.9
2018-11-11T06:59:30.735Z,1005.83
2018-11-11T07:00:11.301Z,1005.88
2018-11-11T07:00:51.859Z,1005.86
2018-11-11T07:01:32.444Z,1005.84
2018-11-11T07:02:13.005Z,1005.86
2018-11-11T07:02:53.574Z,1005.84
2018-11-11T07:03:34.124Z,1005.84
2018-11-11T07:04:14.692Z,1005.81
2018-11-11T07:04:55.263Z,1005.84
2018-11-11T07:05:35.837Z,1005.84
2018-11-11T07:06:16.386Z,1005.85
2018-11-11T07:06:56.949Z,1005.86
2018-11-11T07:07:37.578Z,1005.84
2018-11-11T07:08:18.089Z,1005.78
2018-11-11T07:08:58.655Z,1005.79
2018-11-11T07:09:39.206Z,1005.81
2018-11-11T07:10:19.788Z,1005.79
2018-11-11T07:11:00.346Z,1005.77
2018-11-11T07:11:40.914Z,1005.83
2018-11-11T07:12:21.515Z,1005.8
2018-11-11T07:13:02.079Z,1005.87
2018-11-11T07:13:42.638Z,1005.83
2018-11-11T07:14:23.194Z,1005.79
2018-11-11T07:15:03.774Z,1005.76
2018-11-11T07:15:44.319Z,1005.74
2018-11-11T07:16:24.930Z,1005.73
2018-11-11T07:17:05.496Z,1005.73
2018-11-11T07:17:46.048Z,1005.7
2018-11-11T07:18:26.604Z,1005.67
2018-11-11T07:19:07.172Z,1005.65
2018-11-11T07:19:47.763Z,1005.65
2018-11-11T07:20:28.328Z,1005.64
2018-11-11T07:21:08.880Z,1005.69
2018-11-11T07:21:49.434Z,1005.71
2018-11-11T07:22:30.011Z,1005.72
2018-11-11T07:23:10.558Z,1005.74
2018-11-11T07:23:51.165Z,1005.72
2018-11-11T07:24:31.694Z,1005.69
2018-11-11T07:25:12.255Z,1005.62
2018-11-11T07:25:52.807Z,1005.64
2018-11-11T07:26:33.371Z,1005.62
2018-11-11T07:27:13.925Z,1005.62
2018-11-11T07:27:54.484Z,1005.61
2018-11-11T07:28:35.056Z,1005.7
2018-11-11T07:29:15.621Z,1005.67
2018-11-11T07:29:56.177Z,1005.67
2018-11-11T07:30:36.735Z,1005.67
2018-11-11T07:31:17.295Z,1005.64
2018-11-11T07:31:57.870Z,1005.63
2018-11-11T07:32:38.434Z,1005.62
2018-11-11T07:33:19.049Z,1005.64
2018-11-11T07:33:59.617Z,1005.6
2018-11-11T07:34:40.172Z,1005.61
2018-11-11T07:35:20.720Z,1005.6
2018-11-11T07:36:01.432Z,1005.65
2018-11-11T07:36:41.870Z,1005.67
2018-11-11T07:37:22.424Z,1005.67
2018-11-11T07:38:02.976Z,1005.67
2018-11-11T07:38:43.546Z,1005.71
2018-11-11T07:39:24.098Z,1005.73
2018-11-11T07:40:04.654Z,1005.71
2018-11-11T07:40:45.265Z,1005.71
2018-11-11T07:41:25.813Z,1005.72
2018-11-11T07:42:06.369Z,1005.61
2018-11-11T07:42:46.936Z,1005.58
2018-11-11T07:43:27.503Z,1005.53
2018-11-11T07:44:08.065Z,1005.55
2018-11-11T07:44:48.613Z,1005.52
2018-11-11T07:45:29.160Z,1005.55
2018-11-11T07:46:09.746Z,1005.56
2018-11-11T07:46:50.308Z,1005.57
2018-11-11T07:47:30.884Z,1005.58
2018-11-11T07:48:11.447Z,1005.59
2018-11-11T07:48:51.997Z,1005.57
2018-11-11T07:49:32.567Z,1005.6
2018-11-11T07:50:13.105Z,1005.63
2018-11-11T07:50:53.656Z,1005.58
2018-11-11T07:51:34.215Z,1005.59
2018-11-11T07:52:14.787Z,1005.58
2018-11-11T07:52:55.366Z,1005.62
2018-11-11T07:53:35.919Z,1005.64
2018-11-11T07:54:16.475Z,1005.61
2018-11-11T07:54:57.124Z,1005.68
2018-11-11T07:55:37.603Z,1005.74
2018-11-11T07:56:18.166Z,1005.74
2018-11-11T07:56:58.741Z,1005.77
2018-11-11T07:57:39.307Z,1005.7
2018-11-11T07:58:19.902Z,1005.74
2018-11-11T07:59:00.420Z,1005.78
2018-11-11T07:59:40.974Z,1005.85
2018-11-11T08:00:21.529Z,1005.91
2018-11-11T08:01:02.115Z,1005.91
2018-11-11T08:01:42.722Z,1005.98
2018-11-11T08:02:23.231Z,1005.95
2018-11-11T08:03:03.835Z,1005.95
2018-11-11T08:03:44.383Z,1005.96
2018-11-11T08:04:24.946Z,1005.91
2018-11-11T08:05:05.502Z,1005.85
2018-11-11T08:05:46.075Z,1005.86
2018-11-11T08:06:26.626Z,1005.86
2018-11-11T08:07:07.219Z,1005.92
2018-11-11T08:07:47.788Z,1006
2018-11-11T08:08:28.352Z,1006.08
2018-11-11T08:09:09.074Z,1006.12
2018-11-11T08:09:49.752Z,1006.11
2018-11-11T08:10:30.340Z,1006.11
2018-11-11T08:11:11.039Z,1006.05
2018-11-11T08:11:51.540Z,1005.98
2018-11-11T08:12:32.103Z,1005.94